createdAt,value
2019-05-14T00:02:17.419Z,8.70
2019-05-14T00:10:16.950Z,8.50
2019-05-14T00:13:08.063Z,8.30
2019-05-14T00:15:52.381Z,8.20
2019-05-14T00:18:43.565Z,8.10
2019-05-14T00:21:27.769Z,8.10
2019-05-14T00:24:11.556Z,8.00
2019-05-14T00:27:02.681Z,8.00
2019-05-14T00:29:46.747Z,8.00
2019-05-14T00:32:38.159Z,7.90
2019-05-14T00:35:22.268Z,8.00
2019-05-14T00:38:13.807Z,7.90
2019-05-14T00:40:57.541Z,7.90
2019-05-14T00:43:51.358Z,7.90
2019-05-14T00:46:41.105Z,7.80
2019-05-14T00:49:32.341Z,7.80
2019-05-14T00:52:16.434Z,7.70
2019-05-14T00:55:19.127Z,7.70
2019-05-14T00:58:11.255Z,7.70
2019-05-14T01:00:55.312Z,7.60
2019-05-14T01:03:46.546Z,7.60
2019-05-14T01:06:31.433Z,7.50
2019-05-14T01:09:22.754Z,7.40
2019-05-14T01:12:06.181Z,7.40
2019-05-14T01:15:09.590Z,7.40
2019-05-14T01:18:02.384Z,7.50
2019-05-14T01:20:46.652Z,7.50
2019-05-14T01:23:32.244Z,7.50
2019-05-14T01:26:15.921Z,7.50
2019-05-14T01:29:07.092Z,7.50
2019-05-14T01:31:52.349Z,7.40
2019-05-14T01:34:43.582Z,7.40
2019-05-14T01:37:27.521Z,7.40
2019-05-14T01:40:18.733Z,7.30
2019-05-14T01:43:02.584Z,7.30
2019-05-14T01:45:54.000Z,7.30
2019-05-14T01:48:39.172Z,7.20
2019-05-14T01:51:32.078Z,7.20
2019-05-14T01:54:15.545Z,7.10
2019-05-14T01:57:01.925Z,7.10
2019-05-14T01:59:52.717Z,7.10
2019-05-14T02:02:36.314Z,7.00
2019-05-14T02:05:27.521Z,6.90
2019-05-14T02:08:12.149Z,6.90
2019-05-14T02:11:03.382Z,6.90
2019-05-14T02:13:48.489Z,6.90
2019-05-14T02:16:42.000Z,6.80
2019-05-14T02:19:44.408Z,6.80
2019-05-14T02:22:29.486Z,6.70
2019-05-14T02:25:13.529Z,6.60
2019-05-14T02:28:04.575Z,6.60
2019-05-14T02:33:40.390Z,6.50
2019-05-14T02:36:12.442Z,6.50
2019-05-14T02:38:44.531Z,6.40
2019-05-14T02:41:19.240Z,6.40
2019-05-14T02:43:50.662Z,6.40
2019-05-14T02:46:22.772Z,6.40
2019-05-14T02:48:54.878Z,6.40
2019-05-14T02:51:29.703Z,6.40
2019-05-14T02:54:00.685Z,6.40
2019-05-14T02:56:33.766Z,6.40
2019-05-14T02:59:09.030Z,6.40
2019-05-14T03:01:41.076Z,6.30
2019-05-14T03:04:13.266Z,6.20
2019-05-14T03:06:45.289Z,6.20
2019-05-14T03:09:20.400Z,6.20
2019-05-14T03:11:51.192Z,6.20
2019-05-14T03:14:23.212Z,6.20
2019-05-14T03:16:59.217Z,6.20
2019-05-14T03:19:30.184Z,6.20
2019-05-14T03:22:02.301Z,6.30
2019-05-14T03:24:34.501Z,6.30
2019-05-14T03:27:09.309Z,6.30
2019-05-14T03:29:40.689Z,6.40
2019-05-14T03:32:13.957Z,6.40
2019-05-14T03:34:52.184Z,6.30
2019-05-14T03:37:23.352Z,6.30
2019-05-14T03:39:54.025Z,6.30
2019-05-14T03:42:29.025Z,6.20
2019-05-14T03:45:00.151Z,6.20
2019-05-14T03:47:32.230Z,6.20
2019-05-14T03:50:04.661Z,6.20
2019-05-14T03:52:39.647Z,6.20
2019-05-14T03:55:10.437Z,6.10
2019-05-14T03:57:42.547Z,6.10
2019-05-14T04:00:15.237Z,6.10
2019-05-14T04:02:49.030Z,6.20
2019-05-14T04:05:22.614Z,6.30
2019-05-14T04:07:55.135Z,6.30
2019-05-14T04:10:30.104Z,6.30
2019-05-14T04:13:03.006Z,6.30
2019-05-14T04:15:39.134Z,6.40
2019-05-14T04:18:14.098Z,6.40
2019-05-14T04:20:50.130Z,6.40
2019-05-14T04:23:24.170Z,6.40
2019-05-14T04:26:00.226Z,6.40
2019-05-14T04:28:33.384Z,6.40
2019-05-14T04:31:09.526Z,6.40
2019-05-14T04:33:43.951Z,6.40
2019-05-14T04:36:19.213Z,6.30
2019-05-14T04:38:54.221Z,6.40
2019-05-14T04:41:23.715Z,6.40
2019-05-14T04:43:59.191Z,6.50
2019-05-14T04:46:30.421Z,6.80
2019-05-14T04:49:02.701Z,7.40
2019-05-14T04:51:34.677Z,8.40
2019-05-14T04:54:09.454Z,9.20
2019-05-14T04:56:40.499Z,9.90
2019-05-14T04:59:12.599Z,10.70
2019-05-14T05:01:44.510Z,11.30
2019-05-14T05:04:19.995Z,11.90
2019-05-14T05:06:50.308Z,12.30
2019-05-14T05:09:22.608Z,12.80
2019-05-14T05:11:54.596Z,13.00
2019-05-14T05:14:29.443Z,13.20
2019-05-14T05:17:00.404Z,13.30
2019-05-14T05:19:32.360Z,13.50
2019-05-14T05:22:04.511Z,13.60
2019-05-14T05:24:38.214Z,13.90
2019-05-14T05:27:10.371Z,14.20
2019-05-14T05:29:42.747Z,14.30
2019-05-14T05:32:14.771Z,14.20
2019-05-14T05:34:48.300Z,14.50
2019-05-14T05:37:20.859Z,14.60
2019-05-14T05:39:52.863Z,14.50
2019-05-14T05:42:25.160Z,14.60
2019-05-14T05:44:58.783Z,14.80
2019-05-14T05:47:31.269Z,14.90
2019-05-14T05:50:03.288Z,14.90
2019-05-14T05:52:35.833Z,15.10
2019-05-14T05:55:09.351Z,15.20
2019-05-14T05:57:41.886Z,15.40
2019-05-14T06:00:15.139Z,15.40
2019-05-14T06:02:48.934Z,15.20
2019-05-14T06:05:23.251Z,15.10
2019-05-14T06:08:00.143Z,15.20
2019-05-14T06:10:32.454Z,15.40
2019-05-14T06:13:08.896Z,15.40
2019-05-14T06:15:48.718Z,15.50
2019-05-14T06:18:22.077Z,15.40
2019-05-14T06:20:58.988Z,15.50
2019-05-14T06:23:34.781Z,15.60
2019-05-14T06:26:11.567Z,15.40
2019-05-14T06:28:42.677Z,15.30
2019-05-14T06:31:14.869Z,15.50
2019-05-14T06:33:48.874Z,15.50
2019-05-14T06:36:22.022Z,15.40
2019-05-14T06:38:54.140Z,14.90
2019-05-14T06:41:28.336Z,14.80
2019-05-14T06:43:59.928Z,14.90
2019-05-14T06:46:32.028Z,15.00
2019-05-14T06:49:04.158Z,15.00
2019-05-14T06:51:36.340Z,15.00
2019-05-14T06:54:09.171Z,14.70
2019-05-14T06:56:41.392Z,14.40
2019-05-14T06:59:13.493Z,14.30
2019-05-14T07:01:45.522Z,14.10
2019-05-14T07:04:18.184Z,13.80
2019-05-14T07:06:50.411Z,13.60
2019-05-14T07:09:22.411Z,13.70
2019-05-14T07:11:54.525Z,13.70
2019-05-14T07:14:28.271Z,13.80
2019-05-14T07:17:00.345Z,13.90
2019-05-14T07:19:32.345Z,14.10
2019-05-14T07:22:04.593Z,14.30
2019-05-14T07:24:40.227Z,14.50
2019-05-14T07:27:10.422Z,14.60
2019-05-14T07:29:42.786Z,14.80
2019-05-14T07:32:14.847Z,14.90
2019-05-14T07:34:48.184Z,14.80
2019-05-14T07:37:20.429Z,14.80
2019-05-14T07:39:52.449Z,14.50
2019-05-14T07:42:24.587Z,14.00
2019-05-14T07:44:58.727Z,14.10
2019-05-14T07:47:30.265Z,14.10
2019-05-14T07:50:02.348Z,14.00
2019-05-14T07:52:34.352Z,14.00
2019-05-14T07:55:09.114Z,14.10
2019-05-14T07:57:41.001Z,14.10
2019-05-14T08:00:13.134Z,13.90
2019-05-14T08:02:45.276Z,13.70
2019-05-14T08:05:18.200Z,13.60
2019-05-14T08:07:50.509Z,13.80
2019-05-14T08:10:22.573Z,14.00
2019-05-14T08:12:54.668Z,14.10
2019-05-14T08:15:27.997Z,14.20
2019-05-14T08:17:59.941Z,14.20
2019-05-14T08:20:31.961Z,14.20
2019-05-14T08:23:04.023Z,14.20
2019-05-14T08:25:38.810Z,14.30
2019-05-14T08:28:10.948Z,14.00
2019-05-14T08:30:45.749Z,14.10
2019-05-14T08:33:18.425Z,14.00
2019-05-14T08:35:50.670Z,14.30
2019-05-14T08:38:22.624Z,14.30
2019-05-14T08:40:54.771Z,14.30
2019-05-14T08:43:29.185Z,14.30
2019-05-14T08:46:01.710Z,14.40
2019-05-14T08:48:33.898Z,14.40
2019-05-14T08:51:08.905Z,14.50
2019-05-14T08:53:40.509Z,14.60
2019-05-14T08:56:12.510Z,14.70
2019-05-14T08:58:44.454Z,14.60
2019-05-14T09:01:19.192Z,14.70
2019-05-14T09:03:50.166Z,14.60
2019-05-14T09:06:22.227Z,14.50
2019-05-14T09:08:54.145Z,14.60
2019-05-14T09:11:28.456Z,14.50
2019-05-14T09:13:59.902Z,14.50
2019-05-14T09:16:42.714Z,14.60
2019-05-14T09:19:08.626Z,14.60
2019-05-14T09:21:40.125Z,14.50
2019-05-14T09:24:12.304Z,14.40
2019-05-14T09:26:44.309Z,14.50
2019-05-14T09:29:22.528Z,14.30
2019-05-14T09:31:50.230Z,14.30
2019-05-14T09:34:24.260Z,14.30
2019-05-14T09:36:59.188Z,14.40
2019-05-14T09:39:31.333Z,14.20
2019-05-14T09:42:04.027Z,14.10
2019-05-14T09:44:38.840Z,14.10
2019-05-14T09:47:11.406Z,14.10
2019-05-14T09:49:48.886Z,14.30
2019-05-14T09:52:20.798Z,14.30
2019-05-14T09:54:53.349Z,14.50
2019-05-14T09:57:25.224Z,14.50
2019-05-14T09:59:58.611Z,14.30
2019-05-14T10:02:30.871Z,14.20
2019-05-14T10:05:03.000Z,14.00
2019-05-14T10:07:39.020Z,14.00
2019-05-14T10:10:11.550Z,14.20
2019-05-14T10:12:52.735Z,14.40
2019-05-14T10:15:17.437Z,14.80
2019-05-14T10:17:50.126Z,14.80
2019-05-14T10:20:36.338Z,14.80
2019-05-14T10:22:58.467Z,14.80
2019-05-14T10:25:29.795Z,14.60
2019-05-14T10:28:01.872Z,14.70
2019-05-14T10:30:33.971Z,14.80
2019-05-14T10:33:13.866Z,14.60
2019-05-14T10:35:39.978Z,14.60
2019-05-14T10:38:11.954Z,14.70
2019-05-14T10:40:44.309Z,14.80
2019-05-14T10:43:19.487Z,14.90
2019-05-14T10:45:51.019Z,14.80
2019-05-14T10:48:22.970Z,14.90
2019-05-14T10:51:02.388Z,15.20
2019-05-14T10:53:29.269Z,15.30
2019-05-14T10:56:01.408Z,15.30
2019-05-14T10:58:33.470Z,15.00
2019-05-14T11:01:10.952Z,14.70
2019-05-14T11:03:39.558Z,14.20
2019-05-14T11:06:11.945Z,14.00
2019-05-14T11:08:44.068Z,13.70
2019-05-14T11:11:18.557Z,13.60
2019-05-14T11:13:50.295Z,13.70
2019-05-14T11:16:22.264Z,13.70
2019-05-14T11:18:57.273Z,13.90
2019-05-14T11:21:30.229Z,13.70
2019-05-14T11:24:01.883Z,13.60
2019-05-14T11:26:33.919Z,13.70
2019-05-14T11:29:06.058Z,13.70
2019-05-14T11:31:39.091Z,14.00
2019-05-14T11:34:11.954Z,14.30
2019-05-14T11:36:44.092Z,14.60
2019-05-14T11:39:18.104Z,14.50
2019-05-14T11:41:50.703Z,14.50
2019-05-14T11:44:22.973Z,14.40
2019-05-14T11:46:58.099Z,14.50
2019-05-14T11:49:28.783Z,14.60
2019-05-14T11:52:07.870Z,14.80
2019-05-14T11:54:34.673Z,15.10
2019-05-14T11:57:11.577Z,15.20
2019-05-14T11:59:40.438Z,15.10
2019-05-14T12:02:12.494Z,15.20
2019-05-14T12:04:44.798Z,15.20
2019-05-14T12:07:18.636Z,14.90
2019-05-14T12:09:52.406Z,14.90
2019-05-14T12:12:24.648Z,14.90
2019-05-14T12:14:58.222Z,14.90
2019-05-14T12:17:30.352Z,14.90
2019-05-14T12:20:03.069Z,14.90
2019-05-14T12:22:35.172Z,14.80
2019-05-14T12:25:08.278Z,14.60
2019-05-14T12:27:40.915Z,14.30
2019-05-14T12:30:13.551Z,14.10
2019-05-14T12:32:46.102Z,13.80
2019-05-14T12:35:19.725Z,13.90
2019-05-14T12:37:53.363Z,14.20
2019-05-14T12:40:25.737Z,14.20
2019-05-14T12:42:59.738Z,14.40
2019-05-14T12:45:32.466Z,14.30
2019-05-14T12:48:05.322Z,14.40
2019-05-14T12:50:39.173Z,14.50
2019-05-14T12:53:11.378Z,14.80
2019-05-14T16:29:44.221Z,13.50
2019-05-14T16:32:08.454Z,13.60
2019-05-14T16:34:41.306Z,13.70
2019-05-14T16:37:13.679Z,13.80
2019-05-14T16:39:45.757Z,13.70
2019-05-14T16:42:20.643Z,13.70
2019-05-14T16:44:51.494Z,13.50
2019-05-14T16:47:23.717Z,13.50
2019-05-14T16:49:55.901Z,13.40
2019-05-14T16:52:29.112Z,13.20
2019-05-14T16:55:16.908Z,13.10
2019-05-14T16:57:34.872Z,12.90
2019-05-14T17:00:09.636Z,12.80
2019-05-14T17:02:41.953Z,12.80
2019-05-14T17:05:14.097Z,12.90
2019-05-14T17:07:46.293Z,12.90
2019-05-14T17:10:19.295Z,12.80
2019-05-14T17:12:57.013Z,12.80
2019-05-14T17:15:25.262Z,12.90
2019-05-14T17:17:59.691Z,13.00
2019-05-14T17:20:32.301Z,13.10
2019-05-14T17:23:09.777Z,13.20
2019-05-14T17:25:41.917Z,13.30
2019-05-14T17:28:14.146Z,13.20
2019-05-14T17:30:46.053Z,13.20
2019-05-14T17:33:18.641Z,13.30
2019-05-14T17:35:50.755Z,13.30
2019-05-14T17:38:22.872Z,13.30
2019-05-14T17:40:55.194Z,13.30
2019-05-14T17:43:28.512Z,13.20
2019-05-14T17:46:00.676Z,13.10
2019-05-14T17:48:32.945Z,13.10
2019-05-14T17:51:05.057Z,13.20
2019-05-14T17:53:38.581Z,13.30
2019-05-14T17:56:11.194Z,13.30
2019-05-14T17:58:44.408Z,13.30
2019-05-14T18:01:18.257Z,13.30
2019-05-14T18:03:50.952Z,13.20
2019-05-14T18:06:23.317Z,13.10
2019-05-14T18:08:55.471Z,13.00
2019-05-14T18:11:28.636Z,12.90
2019-05-14T18:14:00.976Z,12.80
2019-05-14T18:16:35.058Z,12.80
2019-05-14T18:19:08.769Z,12.70
2019-05-14T18:21:41.207Z,12.60
2019-05-14T18:24:13.384Z,12.60
2019-05-14T18:26:48.074Z,12.50
2019-05-14T18:29:20.345Z,12.40
2019-05-14T18:31:54.607Z,12.40
2019-05-14T18:34:28.401Z,12.20
2019-05-14T18:37:01.798Z,12.20
2019-05-14T18:39:33.879Z,12.10
2019-05-14T18:42:08.438Z,12.10
2019-05-14T18:44:39.983Z,12.00
2019-05-14T18:47:12.202Z,11.90
2019-05-14T18:49:44.381Z,11.80
2019-05-14T18:52:18.471Z,11.80
2019-05-14T18:54:50.924Z,11.80
2019-05-14T18:57:23.040Z,11.90
2019-05-14T18:59:55.645Z,11.80
2019-05-14T19:02:29.247Z,11.80
2019-05-14T19:05:01.704Z,11.70
2019-05-14T19:07:34.402Z,11.70
2019-05-14T19:10:09.313Z,11.70
2019-05-14T19:12:41.204Z,11.70
2019-05-14T19:15:13.688Z,11.60
2019-05-14T19:17:45.771Z,11.60
2019-05-14T19:20:19.214Z,11.50
2019-05-14T19:22:51.522Z,11.60
2019-05-14T19:25:23.819Z,11.50
2019-05-14T19:27:58.143Z,11.50
2019-05-14T19:30:29.913Z,11.40
2019-05-14T19:33:02.442Z,11.50
2019-05-14T19:35:34.581Z,11.50
2019-05-14T19:38:08.879Z,11.40
2019-05-14T19:40:40.581Z,11.40
2019-05-14T19:43:12.906Z,11.40
2019-05-14T19:45:45.226Z,11.40
2019-05-14T19:48:18.932Z,11.40
2019-05-14T19:50:51.228Z,11.40
2019-05-14T19:53:23.283Z,11.40
2019-05-14T19:55:59.207Z,11.30
2019-05-14T19:58:30.467Z,11.30
2019-05-14T20:01:02.608Z,11.20
2019-05-14T20:03:34.728Z,11.10
2019-05-14T20:06:08.986Z,10.90
2019-05-14T20:08:40.523Z,10.90
2019-05-14T20:11:13.507Z,10.80
2019-05-14T20:13:45.536Z,10.80
2019-05-14T20:16:18.481Z,10.70
2019-05-14T20:18:50.638Z,10.70
2019-05-14T20:21:22.884Z,10.70
2019-05-14T20:23:54.872Z,10.70
2019-05-14T20:26:28.152Z,10.60
2019-05-14T20:29:00.425Z,10.60
2019-05-14T20:31:32.366Z,10.50
2019-05-14T20:34:04.420Z,10.50
2019-05-14T20:36:38.783Z,10.50
2019-05-14T20:39:11.638Z,10.40
2019-05-14T20:41:43.992Z,10.40
2019-05-14T20:44:18.724Z,10.30
2019-05-14T20:46:49.927Z,10.40
2019-05-14T20:49:22.101Z,10.40
2019-05-14T20:51:54.507Z,10.40
2019-05-14T20:54:28.996Z,10.30
2019-05-14T20:57:00.741Z,10.30
2019-05-14T20:59:32.957Z,10.30
2019-05-14T21:02:04.988Z,10.30
2019-05-14T21:04:37.177Z,10.20
2019-05-14T21:07:09.256Z,10.10
2019-05-14T21:09:41.428Z,10.10
2019-05-14T21:12:13.717Z,10.20
2019-05-14T21:14:48.791Z,10.20
2019-05-14T21:17:19.599Z,10.20
2019-05-14T21:19:51.691Z,10.20
2019-05-14T21:22:23.704Z,10.10
2019-05-14T21:24:55.684Z,10.00
2019-05-14T21:27:40.797Z,10.00
2019-05-14T21:30:01.564Z,10.00
2019-05-14T21:32:33.667Z,9.90
2019-05-14T21:35:06.373Z,9.80
2019-05-14T21:37:39.467Z,9.80
2019-05-14T21:40:11.995Z,9.80
2019-05-14T21:42:43.963Z,9.80
2019-05-14T21:45:17.998Z,9.80
2019-05-14T21:47:49.930Z,9.80
2019-05-14T21:50:22.103Z,9.80
2019-05-14T21:52:54.095Z,9.90
2019-05-14T21:55:28.899Z,9.90
2019-05-14T21:58:00.668Z,9.80
2019-05-14T22:00:41.994Z,9.80
2019-05-14T22:03:14.217Z,9.80
2019-05-14T22:05:48.238Z,9.70
2019-05-14T22:08:20.035Z,9.70
2019-05-14T22:10:51.992Z,9.60
2019-05-14T22:13:24.045Z,9.60
2019-05-14T22:15:56.056Z,9.60
2019-05-14T22:18:28.029Z,9.60
2019-05-14T22:21:00.373Z,9.60
2019-05-14T22:23:32.398Z,9.50
2019-05-14T22:26:04.307Z,9.40
2019-05-14T22:28:36.436Z,9.40
2019-05-14T22:31:09.129Z,9.40
2019-05-14T22:33:42.085Z,9.40
2019-05-14T22:36:14.278Z,9.40
2019-05-14T22:38:48.239Z,9.40
2019-05-14T22:41:20.362Z,9.50
2019-05-14T22:43:52.614Z,9.60
2019-05-14T22:46:24.621Z,9.60
2019-05-14T22:48:58.674Z,9.60
2019-05-14T22:51:33.112Z,9.70
2019-05-14T22:54:04.292Z,9.70
2019-05-14T22:56:38.741Z,9.70
2019-05-14T22:59:09.860Z,9.70
2019-05-14T23:01:41.895Z,9.70
2019-05-14T23:04:13.890Z,9.70
2019-05-14T23:06:45.794Z,9.70
2019-05-14T23:09:19.037Z,9.60
2019-05-14T23:11:51.505Z,9.60
2019-05-14T23:14:23.435Z,9.50
2019-05-14T23:16:55.422Z,9.50
2019-05-14T23:19:27.404Z,9.40
2019-05-14T23:21:59.386Z,9.30
2019-05-14T23:24:31.469Z,9.30
2019-05-14T23:27:03.559Z,9.30
2019-05-14T23:29:35.646Z,9.30
2019-05-14T23:32:08.196Z,9.30
2019-05-14T23:34:40.808Z,9.20
2019-05-14T23:37:13.227Z,9.20
2019-05-14T23:39:45.425Z,9.10
2019-05-14T23:42:18.662Z,9.00
2019-05-14T23:44:50.636Z,9.00
2019-05-14T23:47:22.611Z,8.90
2019-05-14T23:49:54.766Z,8.90
2019-05-14T23:52:29.363Z,8.80
2019-05-14T23:55:00.324Z,8.80
2019-05-14T23:57:32.269Z,8.80
